ADDS TAF Data INFO
IDs: Format: Raw Decoded Include METARs

Data at: 1314 UTC 21 May 2018

KEWN 211134Z 2112/2212 22005KT P6SM SCT010 BKN110
  FM211700 23006KT P6SM VCTS SCT025CB BKN040
  FM212100 19008KT P6SM SCT035 BKN200
  FM220800 21004KT P6SM SCT005 BKN200